createdAt,value
2023-05-22T00:00:45.998Z,100636.69
2023-05-22T00:03:17.610Z,100640.59
2023-05-22T00:05:49.016Z,100645.16
2023-05-22T00:08:17.295Z,100641.72
2023-05-22T00:10:45.652Z,100636.50
2023-05-22T00:13:13.572Z,100637.34
2023-05-22T00:15:41.766Z,100624.13
2023-05-22T00:18:10.009Z,100628.06
2023-05-22T00:20:39.559Z,100631.31
2023-05-22T00:23:12.576Z,100630.03
2023-05-22T00:25:42.303Z,100638.66
2023-05-22T00:28:11.993Z,100639.66
2023-05-22T00:30:42.988Z,100637.06
2023-05-22T00:33:12.564Z,100632.16
2023-05-22T00:35:40.781Z,100633.09
2023-05-22T00:38:09.335Z,100630.16
2023-05-22T00:40:37.767Z,100634.06
2023-05-22T00:43:08.907Z,100624.06
2023-05-22T00:45:37.793Z,100621.47
2023-05-22T00:48:06.203Z,100624.19
2023-05-22T00:50:34.204Z,100626.81
2023-05-22T00:53:02.495Z,100637.22
2023-05-22T00:55:31.144Z,100634.22
2023-05-22T00:57:59.744Z,100622.47
2023-05-22T01:00:27.962Z,100622.47
2023-05-22T01:02:56.123Z,100626.69
2023-05-22T01:05:27.122Z,100624.41
2023-05-22T01:07:55.312Z,100632.84
2023-05-22T01:10:24.075Z,100616.56
2023-05-22T01:13:05.166Z,100626.69
2023-05-22T01:15:41.617Z,100622.81
2023-05-22T01:18:31.809Z,100626.91
2023-05-22T01:21:12.476Z,100623.94
2023-05-22T01:24:16.410Z,100629.97
2023-05-22T01:26:56.778Z,100625.53
2023-05-22T01:29:56.183Z,100629.25
2023-05-22T01:32:27.066Z,100630.03
2023-05-22T01:34:59.784Z,100632.50
2023-05-22T01:37:28.618Z,100625.84
2023-05-22T01:39:57.433Z,100629.31
2023-05-22T01:42:26.178Z,100629.72
2023-05-22T01:44:55.072Z,100623.53
2023-05-22T01:47:23.602Z,100627.47
2023-05-22T01:49:53.502Z,100620.59
2023-05-22T01:52:27.923Z,100632.69
2023-05-22T01:55:04.089Z,100632.97
2023-05-22T01:57:57.015Z,100623.47
2023-05-22T02:00:30.269Z,100627.53
2023-05-22T02:03:08.419Z,100633.56
2023-05-22T02:05:39.922Z,100630.75
2023-05-22T02:08:09.444Z,100626.97
2023-05-22T02:10:42.864Z,100633.16
2023-05-22T02:13:12.746Z,100634.13
2023-05-22T02:15:49.270Z,100648.78
2023-05-22T02:18:18.354Z,100651.75
2023-05-22T02:20:47.456Z,100648.97
2023-05-22T02:23:15.785Z,100649.97
2023-05-22T02:25:43.942Z,100655.97
2023-05-22T02:28:12.111Z,100656.97
2023-05-22T02:30:47.235Z,100660.06
2023-05-22T02:33:19.431Z,100660.06
2023-05-22T02:35:54.755Z,100659.91
2023-05-22T02:38:23.285Z,100661.72
2023-05-22T02:40:51.718Z,100663.88
2023-05-22T02:43:19.755Z,100669.66
2023-05-22T02:45:47.998Z,100662.38
2023-05-22T02:48:17.082Z,100662.09
2023-05-22T02:50:48.136Z,100665.69
2023-05-22T02:53:42.708Z,100672.09
2023-05-22T02:56:12.218Z,100661.50
2023-05-22T02:58:40.862Z,100671.00
2023-05-22T03:01:11.211Z,100668.03
2023-05-22T03:03:39.401Z,100673.94
2023-05-22T03:06:09.886Z,100671.31
2023-05-22T03:08:41.775Z,100663.94
2023-05-22T03:11:10.334Z,100672.72
2023-05-22T03:13:38.530Z,100659.66
2023-05-22T03:16:06.939Z,100660.94
2023-05-22T03:18:43.957Z,100669.56
2023-05-22T03:21:12.988Z,100669.34
2023-05-22T03:23:41.652Z,100661.66
2023-05-22T03:26:15.280Z,100658.03
2023-05-22T03:28:44.291Z,100656.66
2023-05-22T03:31:21.959Z,100654.28
2023-05-22T03:34:29.254Z,100660.88
2023-05-22T03:37:00.647Z,100673.50
2023-05-22T03:39:31.249Z,100672.91
2023-05-22T03:42:07.600Z,100666.72
2023-05-22T03:44:36.614Z,100676.59
2023-05-22T03:47:11.475Z,100671.38
2023-05-22T03:49:45.359Z,100662.94
2023-05-22T03:52:13.445Z,100661.69
2023-05-22T03:54:46.480Z,100668.38
2023-05-22T03:57:36.861Z,100674.25
2023-05-22T04:00:35.566Z,100670.91
2023-05-22T04:03:34.620Z,100671.22
2023-05-22T04:06:22.775Z,100672.50
2023-05-22T04:08:54.168Z,100675.50
2023-05-22T04:11:22.360Z,100677.97
2023-05-22T04:13:51.323Z,100671.81
2023-05-22T04:16:19.383Z,100673.34
2023-05-22T04:18:47.267Z,100668.00
2023-05-22T04:21:15.252Z,100681.41
2023-05-22T04:23:44.760Z,100679.31
2023-05-22T04:26:14.243Z,100668.56
2023-05-22T04:29:01.460Z,100674.25
2023-05-22T04:31:30.463Z,100667.72
2023-05-22T04:34:12.328Z,100658.91
2023-05-22T04:36:52.018Z,100663.03
2023-05-22T04:39:26.457Z,100658.19
2023-05-22T04:41:55.264Z,100671.84
2023-05-22T04:44:31.166Z,100668.97
2023-05-22T04:47:11.378Z,100675.16
2023-05-22T04:49:47.209Z,100671.97
2023-05-22T04:52:15.317Z,100675.00
2023-05-22T04:54:45.088Z,100674.16
2023-05-22T04:57:17.501Z,100673.91
2023-05-22T04:59:46.589Z,100678.38
2023-05-22T05:02:15.253Z,100680.91
2023-05-22T05:04:47.237Z,100680.13
2023-05-22T05:07:18.936Z,100677.56
2023-05-22T05:09:49.642Z,100682.34
2023-05-22T05:12:17.624Z,100687.16
2023-05-22T05:14:49.094Z,100693.47
2023-05-22T05:17:17.629Z,100703.06
2023-05-22T05:19:45.708Z,100697.06
2023-05-22T05:22:13.791Z,100696.31
2023-05-22T05:24:42.178Z,100687.78
2023-05-22T05:27:10.797Z,100665.84
2023-05-22T05:29:39.162Z,100673.50
2023-05-22T05:32:15.161Z,100687.06
2023-05-22T05:34:49.010Z,100684.91
2023-05-22T05:37:24.142Z,100695.56
2023-05-22T05:39:53.650Z,100700.81
2023-05-22T05:42:21.580Z,100698.56
2023-05-22T05:44:50.106Z,100693.03
2023-05-22T05:47:18.933Z,100703.47
2023-05-22T05:49:46.810Z,100699.53
2023-05-22T05:52:16.608Z,100706.59
2023-05-22T05:54:47.584Z,100708.25
2023-05-22T05:57:19.747Z,100721.66
2023-05-22T05:59:47.737Z,100718.53
2023-05-22T06:02:34.377Z,100708.25
2023-05-22T06:05:05.256Z,100715.56
2023-05-22T06:07:39.978Z,100706.56
2023-05-22T06:10:12.261Z,100723.34
2023-05-22T06:12:53.975Z,100709.63
2023-05-22T06:15:21.851Z,100701.91
2023-05-22T06:17:50.515Z,100701.06
2023-05-22T06:20:21.763Z,100693.06
2023-05-22T06:22:49.615Z,100694.06
2023-05-22T06:25:20.538Z,100699.09
2023-05-22T06:27:50.035Z,100714.66
2023-05-22T06:30:28.336Z,100719.75
2023-05-22T06:33:01.434Z,100722.34
2023-05-22T06:35:29.449Z,100714.81
2023-05-22T06:37:57.592Z,100708.59
2023-05-22T06:40:29.309Z,100693.41
2023-05-22T06:43:03.508Z,100659.41
2023-05-22T06:45:52.045Z,100681.44
2023-05-22T06:49:00.139Z,100685.16
2023-05-22T06:51:51.379Z,100685.81
2023-05-22T06:54:24.638Z,100714.69
2023-05-22T06:56:57.880Z,100692.63
2023-05-22T06:59:35.638Z,100680.50
2023-05-22T07:06:06.407Z,100665.63
2023-05-22T07:08:35.272Z,100665.50
2023-05-22T07:11:07.262Z,100668.38
2023-05-22T07:13:37.656Z,100671.38
2023-05-22T07:16:06.551Z,100670.97
2023-05-22T07:18:35.763Z,100665.19
2023-05-22T07:21:03.462Z,100680.34
2023-05-22T07:23:33.354Z,100669.25
2023-05-22T07:26:03.716Z,100674.09
2023-05-22T07:28:36.542Z,100683.25
2023-05-22T07:31:11.898Z,100687.84
2023-05-22T07:33:40.937Z,100698.72
2023-05-22T07:36:08.600Z,100697.19
2023-05-22T07:38:46.950Z,100684.91
2023-05-22T07:41:17.915Z,100681.09
2023-05-22T07:43:46.038Z,100696.19
2023-05-22T07:46:19.686Z,100683.16
2023-05-22T07:49:11.458Z,100681.03
2023-05-22T07:51:41.880Z,100672.53
2023-05-22T07:54:14.586Z,100682.69
2023-05-22T07:56:48.306Z,100681.81
2023-05-22T07:59:19.786Z,100688.50
2023-05-22T08:01:47.902Z,100681.00
2023-05-22T08:04:16.404Z,100692.13
2023-05-22T08:06:44.638Z,100697.13
2023-05-22T08:09:12.734Z,100696.59
2023-05-22T08:11:42.317Z,100701.59
2023-05-22T08:14:10.408Z,100691.78
2023-05-22T08:16:38.402Z,100698.25
2023-05-22T08:19:08.047Z,100695.84
2023-05-22T08:21:35.970Z,100694.84
2023-05-22T08:24:04.129Z,100687.09
2023-05-22T08:26:33.509Z,100694.34
2023-05-22T08:29:01.816Z,100701.13
2023-05-22T08:31:29.743Z,100695.84
2023-05-22T08:34:02.857Z,100692.47
2023-05-22T08:36:34.538Z,100686.75
2023-05-22T08:39:10.363Z,100691.06
2023-05-22T08:41:38.419Z,100686.50
2023-05-22T08:44:09.282Z,100685.88
2023-05-22T08:46:41.905Z,100686.94
2023-05-22T08:49:10.631Z,100672.88
2023-05-22T08:51:39.898Z,100680.72
2023-05-22T08:54:09.437Z,100675.38
2023-05-22T08:56:40.046Z,100673.38
2023-05-22T08:59:14.103Z,100663.31
2023-05-22T09:01:42.952Z,100652.69
2023-05-22T09:04:11.877Z,100660.69
2023-05-22T09:06:39.991Z,100666.06
2023-05-22T09:09:07.956Z,100665.81
2023-05-22T09:11:35.891Z,100665.34
2023-05-22T09:14:08.909Z,100670.53
2023-05-22T09:16:53.102Z,100667.56
2023-05-22T09:19:21.114Z,100666.31
2023-05-22T09:21:48.898Z,100668.81
2023-05-22T09:24:16.761Z,100663.16
2023-05-22T09:26:44.524Z,100663.91
2023-05-22T09:29:12.750Z,100657.97
2023-05-22T09:31:44.661Z,100655.88
2023-05-22T09:34:15.976Z,100668.25
2023-05-22T09:36:43.942Z,100656.25
2023-05-22T09:39:11.756Z,100655.69
2023-05-22T09:41:40.500Z,100656.72
2023-05-22T09:44:15.773Z,100650.97
2023-05-22T09:46:50.612Z,100652.13
2023-05-22T09:49:18.265Z,100661.09
2023-05-22T09:51:49.630Z,100659.94
2023-05-22T09:54:20.329Z,100656.47
2023-05-22T09:56:50.479Z,100659.63
2023-05-22T09:59:22.551Z,100654.53
2023-05-22T10:01:50.846Z,100649.91
2023-05-22T10:04:19.339Z,100645.78
2023-05-22T10:06:52.274Z,100652.16
2023-05-22T10:09:23.891Z,100644.13
2023-05-22T10:11:54.881Z,100648.06
2023-05-22T10:14:24.055Z,100637.00
2023-05-22T10:16:53.002Z,100649.44
2023-05-22T10:19:27.398Z,100642.53
2023-05-22T10:21:57.624Z,100643.78
2023-05-22T10:24:25.933Z,100638.38
2023-05-22T10:26:56.160Z,100643.56
2023-05-22T10:29:41.506Z,100639.19
2023-05-22T10:32:44.366Z,100637.00
2023-05-22T10:35:46.577Z,100638.38
2023-05-22T10:38:26.482Z,100639.94
2023-05-22T10:40:55.639Z,100639.06
2023-05-22T10:43:23.691Z,100643.28
2023-05-22T10:46:04.500Z,100641.06
2023-05-22T10:48:48.526Z,100642.91
2023-05-22T10:51:21.291Z,100644.75
2023-05-22T10:53:59.841Z,100634.44
2023-05-22T10:56:38.614Z,100627.22
2023-05-22T10:59:08.566Z,100630.19
2023-05-22T11:01:38.727Z,100625.81
2023-05-22T11:04:25.944Z,100619.16
2023-05-22T11:07:08.782Z,100621.91
2023-05-22T11:09:47.912Z,100620.63
2023-05-22T11:12:28.915Z,100616.13
2023-05-22T11:15:06.344Z,100619.00
2023-05-22T11:17:45.280Z,100612.03
2023-05-22T11:20:23.133Z,100617.81
2023-05-22T11:22:59.777Z,100610.09
2023-05-22T11:25:28.934Z,100609.66
2023-05-22T11:27:58.598Z,100605.66
2023-05-22T11:30:28.115Z,100598.53
2023-05-22T11:32:58.825Z,100606.44
2023-05-22T11:35:28.659Z,100597.13
2023-05-22T11:37:59.076Z,100596.16
2023-05-22T11:40:29.879Z,100594.94
2023-05-22T11:43:01.071Z,100590.22
2023-05-22T11:45:29.154Z,100593.44
2023-05-22T11:47:58.604Z,100590.44
2023-05-22T11:50:43.931Z,100593.78
2023-05-22T11:53:12.864Z,100580.97
2023-05-22T11:55:42.996Z,100579.06
2023-05-22T11:58:11.125Z,100566.03
2023-05-22T12:00:39.544Z,100567.13
2023-05-22T12:03:07.643Z,100571.19
2023-05-22T12:05:35.779Z,100561.69
2023-05-22T12:08:06.935Z,100557.69
2023-05-22T12:10:36.348Z,100561.91
2023-05-22T12:13:04.360Z,100547.97
2023-05-22T12:15:32.012Z,100550.25
2023-05-22T12:18:00.294Z,100546.66
2023-05-22T12:20:31.353Z,100550.41
2023-05-22T12:23:00.164Z,100544.97
2023-05-22T12:25:39.546Z,100546.47
2023-05-22T12:28:07.717Z,100541.84
2023-05-22T12:30:42.612Z,100533.31
2023-05-22T12:33:15.301Z,100523.56
2023-05-22T12:35:43.352Z,100528.88
2023-05-22T12:38:11.475Z,100531.19
2023-05-22T12:40:39.744Z,100514.09
2023-05-22T12:43:08.096Z,100517.28
2023-05-22T12:45:36.364Z,100515.66
2023-05-22T12:48:04.639Z,100510.75
2023-05-22T12:50:32.682Z,100501.09
2023-05-22T12:53:02.513Z,100500.28
2023-05-22T12:55:31.296Z,100494.41
2023-05-22T12:57:59.634Z,100495.56
2023-05-22T13:00:27.774Z,100494.63
2023-05-22T13:02:56.959Z,100492.03
2023-05-22T13:05:27.410Z,100495.38
2023-05-22T13:07:55.277Z,100493.06
2023-05-22T13:10:23.074Z,100483.03
2023-05-22T13:12:51.697Z,100487.41
2023-05-22T13:15:19.603Z,100481.34
2023-05-22T13:17:47.504Z,100477.75
2023-05-22T13:20:18.451Z,100476.72
2023-05-22T13:22:46.472Z,100480.69
2023-05-22T13:25:15.082Z,100473.72
2023-05-22T13:27:47.817Z,100476.44
2023-05-22T13:30:18.898Z,100457.19
2023-05-22T13:32:47.245Z,100463.06
2023-05-22T13:35:15.925Z,100452.81
2023-05-22T13:37:43.848Z,100454.56
2023-05-22T13:40:11.967Z,100450.91
2023-05-22T13:42:43.700Z,100447.53
2023-05-22T13:45:12.859Z,100436.00
2023-05-22T13:47:41.127Z,100432.75
2023-05-22T13:50:12.982Z,100433.91
2023-05-22T13:52:41.044Z,100431.22
2023-05-22T13:55:09.044Z,100429.72
2023-05-22T13:57:40.786Z,100443.88
2023-05-22T14:00:10.424Z,100441.28
2023-05-22T14:02:38.675Z,100451.94
2023-05-22T14:05:07.147Z,100449.09
2023-05-22T14:07:35.237Z,100447.75
2023-05-22T14:10:04.647Z,100451.00
2023-05-22T14:12:34.920Z,100458.28
2023-05-22T14:15:03.053Z,100455.66
2023-05-22T14:17:34.625Z,100458.38
2023-05-22T14:20:02.522Z,100456.28
2023-05-22T14:22:48.024Z,100446.41
2023-05-22T14:25:23.218Z,100451.97
2023-05-22T14:27:52.809Z,100448.13
2023-05-22T14:30:21.094Z,100455.72
2023-05-22T14:32:49.030Z,100437.16
2023-05-22T14:35:19.089Z,100430.63
2023-05-22T14:37:47.072Z,100432.47
2023-05-22T14:40:15.024Z,100428.44
2023-05-22T14:42:42.876Z,100431.41
2023-05-22T14:45:11.294Z,100430.88
2023-05-22T14:47:40.904Z,100435.38
2023-05-22T14:50:18.887Z,100426.69
2023-05-22T14:52:50.110Z,100426.81
2023-05-22T14:55:18.586Z,100437.59
2023-05-22T14:57:48.185Z,100434.09
2023-05-22T15:00:16.897Z,100430.13
2023-05-22T15:02:45.110Z,100430.56
2023-05-22T15:05:12.836Z,100425.28
2023-05-22T15:07:44.639Z,100432.25
2023-05-22T15:10:13.616Z,100436.81
2023-05-22T15:12:41.276Z,100440.25
2023-05-22T15:15:09.380Z,100438.91
2023-05-22T15:17:36.934Z,100442.91
2023-05-22T15:20:05.660Z,100439.50
2023-05-22T15:22:33.498Z,100445.09
2023-05-22T15:25:05.880Z,100442.16
2023-05-22T15:27:35.357Z,100445.19
2023-05-22T15:30:04.566Z,100442.19
2023-05-22T15:32:37.073Z,100449.53
2023-05-22T15:35:06.274Z,100451.25
2023-05-22T15:37:34.400Z,100441.78
2023-05-22T15:40:04.464Z,100442.28
2023-05-22T15:42:35.368Z,100435.44
2023-05-22T15:45:03.404Z,100435.81
2023-05-22T15:47:34.770Z,100443.81
2023-05-22T15:50:02.833Z,100445.31
2023-05-22T15:52:32.372Z,100447.78
2023-05-22T15:54:59.966Z,100446.84
2023-05-22T15:57:29.143Z,100436.00
2023-05-22T15:59:57.462Z,100438.16
2023-05-22T16:02:25.608Z,100435.34
2023-05-22T16:04:53.355Z,100444.69
2023-05-22T16:07:20.999Z,100440.44
2023-05-22T16:09:50.362Z,100455.31
2023-05-22T16:12:18.829Z,100454.22
2023-05-22T16:14:47.089Z,100456.69
2023-05-22T16:17:14.759Z,100457.22
2023-05-22T16:19:43.222Z,100456.50
2023-05-22T16:22:10.858Z,100462.59
2023-05-22T16:24:38.481Z,100463.81
2023-05-22T16:27:06.649Z,100463.97
2023-05-22T16:29:34.636Z,100466.56
2023-05-22T16:32:02.406Z,100466.28
2023-05-22T16:34:32.135Z,100465.53
2023-05-22T16:37:00.894Z,100460.75
2023-05-22T16:39:28.542Z,100475.28
2023-05-22T16:41:56.362Z,100470.50
2023-05-22T16:44:24.109Z,100469.00
2023-05-22T16:46:52.114Z,100470.06
2023-05-22T16:49:19.690Z,100471.75
2023-05-22T16:51:47.749Z,100468.75
2023-05-22T16:54:15.802Z,100467.78
2023-05-22T16:56:43.778Z,100476.13
2023-05-22T16:59:12.018Z,100465.44
2023-05-22T17:01:39.858Z,100469.72
2023-05-22T17:04:07.477Z,100476.63
2023-05-22T17:06:36.097Z,100470.75
2023-05-22T17:09:03.701Z,100470.34
2023-05-22T17:11:31.531Z,100467.06
2023-05-22T17:13:59.404Z,100483.66
2023-05-22T17:16:27.168Z,100471.13
2023-05-22T17:18:55.499Z,100481.66
2023-05-22T17:21:24.564Z,100476.97
2023-05-22T17:24:01.118Z,100472.72
2023-05-22T17:26:30.071Z,100477.13
2023-05-22T17:28:57.867Z,100473.88
2023-05-22T17:31:25.867Z,100476.09
2023-05-22T17:33:53.929Z,100472.63
2023-05-22T17:36:21.983Z,100472.41
2023-05-22T17:38:49.777Z,100479.47
2023-05-22T17:41:17.433Z,100471.91
2023-05-22T17:43:46.280Z,100481.41
2023-05-22T17:46:14.242Z,100469.84
2023-05-22T17:48:41.955Z,100471.25
2023-05-22T17:51:10.189Z,100473.84
2023-05-22T17:53:39.253Z,100467.75
2023-05-22T17:56:07.544Z,100470.50
2023-05-22T17:58:35.592Z,100461.41
2023-05-22T18:01:03.518Z,100467.41
2023-05-22T18:03:31.462Z,100468.59
2023-05-22T18:05:59.896Z,100470.16
2023-05-22T18:08:28.464Z,100460.63
2023-05-22T18:10:57.960Z,100471.72
2023-05-22T18:13:26.063Z,100468.41
2023-05-22T18:15:54.379Z,100472.81
2023-05-22T18:18:22.843Z,100463.69
2023-05-22T18:20:50.791Z,100468.94
2023-05-22T18:23:19.875Z,100469.56
2023-05-22T18:25:47.798Z,100463.28
2023-05-22T18:28:15.731Z,100473.16
2023-05-22T18:30:47.389Z,100473.91
2023-05-22T18:33:16.705Z,100472.66
2023-05-22T18:35:44.488Z,100472.66
2023-05-22T18:38:12.506Z,100473.09
2023-05-22T18:40:40.556Z,100472.28
2023-05-22T18:43:08.538Z,100469.03
2023-05-22T18:45:36.540Z,100481.94
2023-05-22T18:48:04.628Z,100478.78
2023-05-22T18:50:32.573Z,100470.81
2023-05-22T18:53:00.431Z,100471.22
2023-05-22T18:55:28.370Z,100485.78
2023-05-22T18:57:56.930Z,100473.66
2023-05-22T19:00:24.951Z,100475.84
2023-05-22T19:02:53.197Z,100476.06
2023-05-22T19:05:21.249Z,100473.16
2023-05-22T19:07:48.934Z,100478.41
2023-05-22T19:10:16.781Z,100473.09
2023-05-22T19:12:44.567Z,100472.25
2023-05-22T19:15:12.451Z,100464.09
2023-05-22T19:17:40.007Z,100462.44
2023-05-22T19:20:08.933Z,100462.81
2023-05-22T19:22:37.013Z,100463.78
2023-05-22T19:25:07.788Z,100457.06
2023-05-22T19:27:36.733Z,100454.19
2023-05-22T19:30:07.337Z,100463.78
2023-05-22T19:32:35.387Z,100451.47
2023-05-22T19:35:03.344Z,100457.94
2023-05-22T19:37:32.577Z,100451.69
2023-05-22T19:40:00.286Z,100451.78
2023-05-22T19:42:28.260Z,100442.88
2023-05-22T19:44:56.327Z,100449.59
2023-05-22T19:47:30.809Z,100449.59
2023-05-22T19:49:58.936Z,100437.84
2023-05-22T19:52:26.910Z,100442.50
2023-05-22T19:54:54.838Z,100436.06
2023-05-22T19:57:22.678Z,100439.31
2023-05-22T19:59:50.821Z,100439.94
2023-05-22T20:02:18.563Z,100440.78
2023-05-22T20:04:49.600Z,100432.09
2023-05-22T20:07:17.342Z,100437.72
2023-05-22T20:09:45.432Z,100434.28
2023-05-22T20:12:12.935Z,100433.84
2023-05-22T20:14:40.692Z,100437.66
2023-05-22T20:17:08.277Z,100429.34
2023-05-22T20:19:35.971Z,100436.19
2023-05-22T20:22:05.633Z,100437.22
2023-05-22T20:24:35.618Z,100437.56
2023-05-22T20:27:05.295Z,100431.53
2023-05-22T20:29:33.514Z,100442.03
2023-05-22T20:32:01.328Z,100435.97
2023-05-22T20:34:29.207Z,100424.22
2023-05-22T20:36:58.482Z,100427.03
2023-05-22T20:39:26.954Z,100420.97
2023-05-22T20:41:54.823Z,100423.97
2023-05-22T20:44:24.737Z,100418.09
2023-05-22T20:46:55.918Z,100419.72
2023-05-22T20:49:23.656Z,100416.13
2023-05-22T20:51:51.951Z,100415.38
2023-05-22T20:54:19.527Z,100425.47
2023-05-22T20:56:47.565Z,100431.56
2023-05-22T20:59:16.391Z,100414.66
2023-05-22T21:01:45.013Z,100418.72
2023-05-22T21:04:13.248Z,100434.50
2023-05-22T21:06:41.390Z,100421.19
2023-05-22T21:09:09.536Z,100410.16
2023-05-22T21:11:37.316Z,100423.06
2023-05-22T21:14:05.193Z,100409.13
2023-05-22T21:16:33.218Z,100417.47
2023-05-22T21:19:01.226Z,100411.41
2023-05-22T21:21:29.308Z,100410.56
2023-05-22T21:23:57.129Z,100419.25
2023-05-22T21:26:24.974Z,100418.84
2023-05-22T21:28:52.774Z,100413.19
2023-05-22T21:31:20.707Z,100418.25
2023-05-22T21:33:48.272Z,100416.03
2023-05-22T21:36:16.313Z,100416.84
2023-05-22T21:38:44.527Z,100406.09
2023-05-22T21:41:12.778Z,100407.28
2023-05-22T21:43:40.477Z,100411.50
2023-05-22T21:46:08.746Z,100404.59
2023-05-22T21:48:36.317Z,100402.56
2023-05-22T21:51:04.213Z,100405.13
2023-05-22T21:53:32.060Z,100405.84
2023-05-22T21:56:00.039Z,100405.81
2023-05-22T21:58:27.821Z,100394.19
2023-05-22T22:00:55.689Z,100399.00
2023-05-22T22:03:23.347Z,100393.06
2023-05-22T22:05:51.422Z,100386.13
2023-05-22T22:08:19.206Z,100382.16
2023-05-22T22:10:47.159Z,100388.56
2023-05-22T22:13:15.134Z,100384.88
2023-05-22T22:15:42.756Z,100383.81
2023-05-22T22:18:15.164Z,100379.31
2023-05-22T22:20:45.264Z,100375.81
2023-05-22T22:23:13.393Z,100378.19
2023-05-22T22:25:41.685Z,100374.84
2023-05-22T22:28:09.501Z,100380.66
2023-05-22T22:30:37.145Z,100372.25
2023-05-22T22:33:05.632Z,100376.59
2023-05-22T22:35:33.858Z,100379.31
2023-05-22T22:38:01.816Z,100376.41
2023-05-22T22:40:29.645Z,100383.00
2023-05-22T22:42:57.907Z,100385.50
2023-05-22T22:45:25.738Z,100378.19
2023-05-22T22:47:56.896Z,100374.88
2023-05-22T22:50:24.613Z,100379.47
2023-05-22T22:52:52.355Z,100373.94
2023-05-22T22:55:20.756Z,100377.06
2023-05-22T22:57:50.211Z,100369.41
2023-05-22T23:00:19.367Z,100359.66
2023-05-22T23:02:47.347Z,100361.28
2023-05-22T23:05:20.589Z,100363.09
2023-05-22T23:07:49.243Z,100364.50
2023-05-22T23:10:17.523Z,100366.34
2023-05-22T23:12:48.538Z,100355.06
2023-05-22T23:15:16.921Z,100359.28
2023-05-22T23:17:44.823Z,100355.44
2023-05-22T23:20:12.677Z,100349.44
2023-05-22T23:22:40.712Z,100353.41
2023-05-22T23:25:09.271Z,100350.06
2023-05-22T23:27:37.842Z,100354.84
2023-05-22T23:30:08.775Z,100347.06
2023-05-22T23:32:36.994Z,100343.16
2023-05-22T23:35:05.847Z,100344.19
2023-05-22T23:37:33.819Z,100348.28
2023-05-22T23:40:01.569Z,100349.66
2023-05-22T23:42:32.465Z,100351.13
2023-05-22T23:45:00.167Z,100338.31
2023-05-22T23:47:28.536Z,100339.19
2023-05-22T23:49:57.228Z,100336.63
2023-05-22T23:52:24.802Z,100334.06
2023-05-22T23:54:52.824Z,100326.94
2023-05-22T23:57:21.044Z,100324.19
2023-05-22T23:59:48.808Z,100330.22
